Strona główna
METAR-TAF:

METAR-TAF

Lotnisko :

Port lotniczy Zagrzeb im. Franja Tuđmana

Zagrzeb, Chorwacja

Szerokość geograficzna: 45-44N, Długość geograficzna: 016-04E, wysokość: 106 m

Aktualna obserwacja pogody

Raport powstał 31 minut temu, godzina 15:00 UTC
Wiatr 5 kt od wschodnio-północny wschód, zmienny między północ i południowy wschód
Temperatura 19°C
Wilgotność 32%
Ciśnienie 1024 hPa
Widzialność 10 km lub więcej
Brak chmur poniżej 1500 m i brak chmur cumulonimbus

METAR: LDZA 231500Z 07005KT 350V140 CAVOK 19/02 Q1024 NOSIG

czas: 16:31 (15:31 UTC)

Prognoza

Raport powstał 4 godziny i 6 minut temu, godzina 11:25 UTC
Prognoza ważna od 23 godzina 12 UTC do 24 godzina 12 UTC
Wiatr 2 kt z kierunków zmiennych
Widzialność 10 km lub więcej
Brak chmur poniżej 1500 m i brak chmur cumulonimbus
Prawdopodobieństwo 30% :
Przejściowo
od 23 godzina 12 UTC do 23 godzina 18 UTC
Wiatr 6 kt od północny wschód

TAF: LDZA 231125Z 2312/2412 VRB02KT CAVOK TX19/2313Z TN01/2405Z PROB30 TEMPO 2312/2318 05006KT

Obserwacja i prognoza pogody dla ponad 4000 lotnisk (raport METAR i TAF).

Dostępne stacje oznaczono żółtymi i czerwonymi punktami na mapie.

Najedź kursorem aby zobaczyć nazwę stacji.

Kliknij aby zobaczyć obserwacje i prognozy pogody.

Aby zmienić mapę: kliknij na zielony przycisk z czarnym krzyżykiem, aby powiększyć; na zielony przycisk z myślnikiem, aby pomniejszyć; na zielone strzałki, aby przejść do map sąsiednich.


METAR-TAF: